NCAR-RAP Real-Time Weather Data

Output produced by METARs form (01 December 2020  17:30 UTC)
found at http://weather.rap.ucar.edu/surface/
 
KICT 011653Z 16010KT 10SM FEW300 05/M04 A2996 RMK AO2 SLP154 T00501039
KICT 011553Z 17010KT 10SM FEW300 03/M04 A2996 RMK AO2 SLP154 T00281044
KICT 011453Z 14006KT 10SM CLR 00/M05 A2996 RMK AO2 SLP157 T00001050 53003
KICT 011353Z 17003KT 10SM CLR M03/M07 A2997 RMK AO2 SLP161 T10331072
KICT 011253Z 12006KT 10SM CLR M03/M07 A2994 RMK AO2 SLP151 T10281072
KICT 011153Z 15006KT 10SM CLR M03/M07 A2995 RMK AO2 SLP154 T10281072 11011 21033 56011
KICT 011053Z 17008KT 10SM CLR M02/M07 A2995 RMK AO2 SLP153 T10221067
KICT 010953Z 16008KT 10SM CLR M02/M07 A2997 RMK AO2 SLP158 T10221072
KICT 010853Z 15008KT 10SM CLR M01/M07 A2998 RMK AO2 SLP161 T10111072 56021
KICT 010753Z 15008KT 10SM CLR M02/M07 A2999 RMK AO2 SLP165 T10171072
KICT 010653Z 15007KT 10SM CLR M01/M08 A3003 RMK AO2 SLP176 T10111078
KICT 010553Z 15007KT 10SM CLR M01/M08 A3005 RMK AO2 SLP184 T10111078 10006 21017 400721061 56022
KICT 010453Z 16009KT 10SM CLR M01/M07 A3007 RMK AO2 SLP192 T10061072
KICT 010353Z 16009KT 10SM CLR M01/M07 A3009 RMK AO2 SLP202 T10061072
KICT 010253Z 17009KT 10SM CLR M01/M07 A3012 RMK AO2 SLP212 T10061072 58009